sensor_id;sensor_type;location;lat;lon;timestamp;P1;durP1;ratioP1;P2;durP2;ratioP2
787;SDS011;16074;42.708;23.312;2023-05-10T00:01:40;8.93;;;7.68;;
787;SDS011;16074;42.708;23.312;2023-05-10T00:04:08;9.50;;;8.70;;
787;SDS011;16074;42.708;23.312;2023-05-10T00:06:36;10.93;;;9.82;;
787;SDS011;16074;42.708;23.312;2023-05-10T00:09:04;10.57;;;9.57;;
787;SDS011;16074;42.708;23.312;2023-05-10T00:11:33;13.50;;;11.85;;
787;SDS011;16074;42.708;23.312;2023-05-10T00:14:01;13.82;;;12.43;;
787;SDS011;16074;42.708;23.312;2023-05-10T00:16:30;15.75;;;13.45;;
787;SDS011;16074;42.708;23.312;2023-05-10T00:18:59;16.27;;;14.38;;
787;SDS011;16074;42.708;23.312;2023-05-10T00:21:27;16.48;;;14.70;;
787;SDS011;16074;42.708;23.312;2023-05-10T00:23:55;19.40;;;16.50;;
787;SDS011;16074;42.708;23.312;2023-05-10T00:26:24;20.33;;;18.10;;
787;SDS011;16074;42.708;23.312;2023-05-10T00:28:54;19.52;;;15.45;;
787;SDS011;16074;42.708;23.312;2023-05-10T00:31:23;16.98;;;15.38;;
787;SDS011;16074;42.708;23.312;2023-05-10T00:33:53;19.48;;;15.95;;
787;SDS011;16074;42.708;23.312;2023-05-10T00:36:21;17.35;;;15.65;;
787;SDS011;16074;42.708;23.312;2023-05-10T00:38:49;18.88;;;16.05;;
787;SDS011;16074;42.708;23.312;2023-05-10T00:41:18;20.25;;;17.20;;
787;SDS011;16074;42.708;23.312;2023-05-10T00:43:47;19.33;;;16.25;;
787;SDS011;16074;42.708;23.312;2023-05-10T00:46:16;18.85;;;16.42;;
787;SDS011;16074;42.708;23.312;2023-05-10T00:48:44;19.67;;;15.75;;
787;SDS011;16074;42.708;23.312;2023-05-10T00:51:14;21.73;;;16.52;;
787;SDS011;16074;42.708;23.312;2023-05-10T00:53:43;17.95;;;16.05;;
787;SDS011;16074;42.708;23.312;2023-05-10T00:56:13;19.33;;;16.50;;
787;SDS011;16074;42.708;23.312;2023-05-10T00:58:41;21.08;;;17.88;;
787;SDS011;16074;42.708;23.312;2023-05-10T01:01:10;23.10;;;18.88;;
787;SDS011;16074;42.708;23.312;2023-05-10T01:03:39;20.70;;;16.50;;
787;SDS011;16074;42.708;23.312;2023-05-10T01:06:08;18.55;;;16.52;;
787;SDS011;16074;42.708;23.312;2023-05-10T01:08:39;20.70;;;17.48;;
787;SDS011;16074;42.708;23.312;2023-05-10T01:11:08;19.65;;;17.60;;
787;SDS011;16074;42.708;23.312;2023-05-10T01:13:37;20.35;;;17.85;;
787;SDS011;16074;42.708;23.312;2023-05-10T01:16:08;19.35;;;16.13;;
787;SDS011;16074;42.708;23.312;2023-05-10T01:18:38;20.05;;;16.70;;
787;SDS011;16074;42.708;23.312;2023-05-10T01:21:14;18.38;;;16.17;;
787;SDS011;16074;42.708;23.312;2023-05-10T01:30:18;17.83;;;15.80;;
787;SDS011;16074;42.708;23.312;2023-05-10T01:33:21;16.98;;;15.27;;
787;SDS011;16074;42.708;23.312;2023-05-10T01:35:55;15.48;;;13.88;;
787;SDS011;16074;42.708;23.312;2023-05-10T01:38:33;15.68;;;13.80;;
787;SDS011;16074;42.708;23.312;2023-05-10T01:41:09;17.95;;;15.02;;
787;SDS011;16074;42.708;23.312;2023-05-10T01:43:43;18.10;;;14.55;;
787;SDS011;16074;42.708;23.312;2023-05-10T01:46:23;17.30;;;13.88;;
787;SDS011;16074;42.708;23.312;2023-05-10T01:48:57;22.23;;;14.02;;
787;SDS011;16074;42.708;23.312;2023-05-10T01:51:29;11.93;;;10.45;;
787;SDS011;16074;42.708;23.312;2023-05-10T01:54:04;15.55;;;13.95;;
787;SDS011;16074;42.708;23.312;2023-05-10T01:56:34;15.23;;;13.63;;
787;SDS011;16074;42.708;23.312;2023-05-10T01:59:06;16.00;;;12.43;;
787;SDS011;16074;42.708;23.312;2023-05-10T02:01:40;16.15;;;14.48;;
787;SDS011;16074;42.708;23.312;2023-05-10T02:04:12;16.05;;;13.48;;
787;SDS011;16074;42.708;23.312;2023-05-10T02:06:44;13.55;;;12.15;;
787;SDS011;16074;42.708;23.312;2023-05-10T02:09:16;12.63;;;11.32;;
787;SDS011;16074;42.708;23.312;2023-05-10T02:11:46;14.38;;;12.50;;
787;SDS011;16074;42.708;23.312;2023-05-10T02:14:16;13.73;;;12.32;;
787;SDS011;16074;42.708;23.312;2023-05-10T02:16:46;12.45;;;11.15;;
787;SDS011;16074;42.708;23.312;2023-05-10T02:19:19;14.60;;;12.75;;
787;SDS011;16074;42.708;23.312;2023-05-10T02:21:48;13.80;;;12.50;;
787;SDS011;16074;42.708;23.312;2023-05-10T02:24:18;14.93;;;13.27;;
787;SDS011;16074;42.708;23.312;2023-05-10T02:26:48;13.15;;;11.85;;
787;SDS011;16074;42.708;23.312;2023-05-10T02:29:19;14.73;;;12.38;;
787;SDS011;16074;42.708;23.312;2023-05-10T02:31:49;13.05;;;11.70;;
787;SDS011;16074;42.708;23.312;2023-05-10T02:34:22;12.77;;;11.57;;
787;SDS011;16074;42.708;23.312;2023-05-10T02:36:53;14.48;;;12.95;;
787;SDS011;16074;42.708;23.312;2023-05-10T02:39:23;11.70;;;10.48;;
787;SDS011;16074;42.708;23.312;2023-05-10T02:41:56;12.25;;;11.05;;
787;SDS011;16074;42.708;23.312;2023-05-10T02:44:25;14.05;;;12.55;;
787;SDS011;16074;42.708;23.312;2023-05-10T02:46:57;17.95;;;11.60;;
787;SDS011;16074;42.708;23.312;2023-05-10T02:49:29;11.95;;;10.75;;
787;SDS011;16074;42.708;23.312;2023-05-10T02:51:58;12.00;;;10.82;;
787;SDS011;16074;42.708;23.312;2023-05-10T02:54:30;12.80;;;11.50;;
787;SDS011;16074;42.708;23.312;2023-05-10T02:57:02;12.00;;;10.75;;
787;SDS011;16074;42.708;23.312;2023-05-10T02:59:33;12.43;;;10.25;;
787;SDS011;16074;42.708;23.312;2023-05-10T03:02:02;12.30;;;10.60;;
787;SDS011;16074;42.708;23.312;2023-05-10T03:04:32;14.13;;;10.80;;
787;SDS011;16074;42.708;23.312;2023-05-10T03:07:01;12.90;;;10.98;;
787;SDS011;16074;42.708;23.312;2023-05-10T03:09:30;9.70;;;8.52;;
787;SDS011;16074;42.708;23.312;2023-05-10T03:12:00;10.70;;;9.75;;
787;SDS011;16074;42.708;23.312;2023-05-10T03:14:40;11.60;;;10.50;;
787;SDS011;16074;42.708;23.312;2023-05-10T03:17:18;12.27;;;11.00;;
787;SDS011;16074;42.708;23.312;2023-05-10T03:19:54;12.02;;;10.77;;
787;SDS011;16074;42.708;23.312;2023-05-10T03:22:25;14.27;;;9.88;;
787;SDS011;16074;42.708;23.312;2023-05-10T03:24:58;11.50;;;10.15;;
787;SDS011;16074;42.708;23.312;2023-05-10T03:27:33;10.77;;;9.68;;
787;SDS011;16074;42.708;23.312;2023-05-10T03:30:04;12.50;;;11.13;;
787;SDS011;16074;42.708;23.312;2023-05-10T03:32:35;10.52;;;9.50;;
787;SDS011;16074;42.708;23.312;2023-05-10T03:35:07;10.95;;;9.85;;
787;SDS011;16074;42.708;23.312;2023-05-10T03:37:36;12.13;;;9.63;;
787;SDS011;16074;42.708;23.312;2023-05-10T03:40:05;12.30;;;10.15;;
787;SDS011;16074;42.708;23.312;2023-05-10T03:42:36;10.90;;;9.82;;
787;SDS011;16074;42.708;23.312;2023-05-10T03:45:05;12.90;;;11.70;;
787;SDS011;16074;42.708;23.312;2023-05-10T03:47:34;11.60;;;10.32;;
787;SDS011;16074;42.708;23.312;2023-05-10T03:50:03;11.25;;;10.13;;
787;SDS011;16074;42.708;23.312;2023-05-10T03:52:33;10.75;;;9.68;;
787;SDS011;16074;42.708;23.312;2023-05-10T03:55:02;12.07;;;10.88;;
787;SDS011;16074;42.708;23.312;2023-05-10T03:57:31;11.68;;;10.38;;
787;SDS011;16074;42.708;23.312;2023-05-10T03:59:59;10.82;;;9.65;;
787;SDS011;16074;42.708;23.312;2023-05-10T04:02:39;13.75;;;9.45;;
787;SDS011;16074;42.708;23.312;2023-05-10T04:05:14;11.27;;;10.18;;
787;SDS011;16074;42.708;23.312;2023-05-10T04:07:44;11.80;;;10.70;;
787;SDS011;16074;42.708;23.312;2023-05-10T04:10:14;11.65;;;10.45;;
787;SDS011;16074;42.708;23.312;2023-05-10T04:12:43;9.68;;;8.77;;
787;SDS011;16074;42.708;23.312;2023-05-10T04:15:11;9.80;;;8.77;;
787;SDS011;16074;42.708;23.312;2023-05-10T04:17:40;10.13;;;9.13;;
787;SDS011;16074;42.708;23.312;2023-05-10T04:20:08;10.32;;;9.20;;
787;SDS011;16074;42.708;23.312;2023-05-10T04:22:37;10.40;;;9.43;;
787;SDS011;16074;42.708;23.312;2023-05-10T04:25:08;10.38;;;9.38;;
787;SDS011;16074;42.708;23.312;2023-05-10T04:27:36;10.18;;;9.27;;
787;SDS011;16074;42.708;23.312;2023-05-10T04:30:05;9.90;;;9.00;;
787;SDS011;16074;42.708;23.312;2023-05-10T04:32:34;10.30;;;9.40;;
787;SDS011;16074;42.708;23.312;2023-05-10T04:35:03;11.52;;;10.35;;
787;SDS011;16074;42.708;23.312;2023-05-10T04:37:31;9.35;;;8.52;;
787;SDS011;16074;42.708;23.312;2023-05-10T04:39:59;10.07;;;9.27;;
787;SDS011;16074;42.708;23.312;2023-05-10T04:42:29;11.85;;;10.63;;
787;SDS011;16074;42.708;23.312;2023-05-10T04:44:58;10.55;;;9.55;;
787;SDS011;16074;42.708;23.312;2023-05-10T04:47:26;9.80;;;8.93;;
787;SDS011;16074;42.708;23.312;2023-05-10T04:49:54;10.25;;;9.30;;
787;SDS011;16074;42.708;23.312;2023-05-10T04:52:22;10.80;;;9.60;;
787;SDS011;16074;42.708;23.312;2023-05-10T04:54:50;10.70;;;9.70;;
787;SDS011;16074;42.708;23.312;2023-05-10T04:57:19;10.90;;;9.75;;
787;SDS011;16074;42.708;23.312;2023-05-10T04:59:49;10.02;;;9.05;;
787;SDS011;16074;42.708;23.312;2023-05-10T05:02:17;12.70;;;11.05;;
787;SDS011;16074;42.708;23.312;2023-05-10T05:04:45;12.77;;;11.57;;
787;SDS011;16074;42.708;23.312;2023-05-10T05:07:14;12.18;;;10.93;;
787;SDS011;16074;42.708;23.312;2023-05-10T05:09:42;12.57;;;11.38;;
787;SDS011;16074;42.708;23.312;2023-05-10T05:12:10;12.95;;;11.75;;
787;SDS011;16074;42.708;23.312;2023-05-10T05:14:40;12.02;;;10.93;;
787;SDS011;16074;42.708;23.312;2023-05-10T05:17:10;12.38;;;11.18;;
787;SDS011;16074;42.708;23.312;2023-05-10T05:19:38;13.20;;;11.80;;
787;SDS011;16074;42.708;23.312;2023-05-10T05:22:06;12.27;;;11.13;;
787;SDS011;16074;42.708;23.312;2023-05-10T05:24:35;12.65;;;11.45;;
787;SDS011;16074;42.708;23.312;2023-05-10T05:27:04;11.68;;;10.57;;
787;SDS011;16074;42.708;23.312;2023-05-10T05:29:33;12.95;;;11.57;;
787;SDS011;16074;42.708;23.312;2023-05-10T05:32:02;14.57;;;13.02;;
787;SDS011;16074;42.708;23.312;2023-05-10T05:34:31;12.95;;;11.70;;
787;SDS011;16074;42.708;23.312;2023-05-10T05:37:00;12.35;;;11.15;;
787;SDS011;16074;42.708;23.312;2023-05-10T05:39:28;14.07;;;12.77;;
787;SDS011;16074;42.708;23.312;2023-05-10T05:41:56;15.15;;;12.68;;
787;SDS011;16074;42.708;23.312;2023-05-10T05:44:25;13.07;;;11.60;;
787;SDS011;16074;42.708;23.312;2023-05-10T05:46:55;12.82;;;11.35;;
787;SDS011;16074;42.708;23.312;2023-05-10T05:49:23;13.25;;;12.05;;
787;SDS011;16074;42.708;23.312;2023-05-10T05:51:53;13.40;;;12.10;;
787;SDS011;16074;42.708;23.312;2023-05-10T05:54:21;12.48;;;11.25;;
787;SDS011;16074;42.708;23.312;2023-05-10T05:56:49;13.60;;;11.95;;
787;SDS011;16074;42.708;23.312;2023-05-10T05:59:18;14.32;;;12.85;;
787;SDS011;16074;42.708;23.312;2023-05-10T06:01:46;12.70;;;11.50;;
787;SDS011;16074;42.708;23.312;2023-05-10T06:04:14;13.73;;;12.43;;
787;SDS011;16074;42.708;23.312;2023-05-10T06:06:42;14.93;;;13.35;;
787;SDS011;16074;42.708;23.312;2023-05-10T06:09:12;14.25;;;12.80;;
787;SDS011;16074;42.708;23.312;2023-05-10T06:11:40;13.90;;;12.15;;
787;SDS011;16074;42.708;23.312;2023-05-10T06:14:09;13.32;;;12.13;;
787;SDS011;16074;42.708;23.312;2023-05-10T06:16:37;13.65;;;12.30;;
787;SDS011;16074;42.708;23.312;2023-05-10T06:19:06;13.70;;;12.30;;
787;SDS011;16074;42.708;23.312;2023-05-10T06:21:34;14.65;;;12.80;;
787;SDS011;16074;42.708;23.312;2023-05-10T06:24:02;16.98;;;13.85;;
787;SDS011;16074;42.708;23.312;2023-05-10T06:26:33;14.68;;;13.20;;
787;SDS011;16074;42.708;23.312;2023-05-10T06:29:01;13.48;;;12.07;;
787;SDS011;16074;42.708;23.312;2023-05-10T06:31:29;12.70;;;11.48;;
787;SDS011;16074;42.708;23.312;2023-05-10T06:33:58;13.65;;;12.02;;
787;SDS011;16074;42.708;23.312;2023-05-10T06:36:26;12.60;;;11.40;;
787;SDS011;16074;42.708;23.312;2023-05-10T06:38:54;16.63;;;12.40;;
787;SDS011;16074;42.708;23.312;2023-05-10T06:41:22;14.60;;;12.43;;
787;SDS011;16074;42.708;23.312;2023-05-10T06:43:52;13.15;;;11.75;;
787;SDS011;16074;42.708;23.312;2023-05-10T06:46:20;13.75;;;12.35;;
787;SDS011;16074;42.708;23.312;2023-05-10T06:48:49;15.02;;;11.90;;
787;SDS011;16074;42.708;23.312;2023-05-10T06:51:17;13.80;;;12.40;;
787;SDS011;16074;42.708;23.312;2023-05-10T06:53:45;12.02;;;10.82;;
787;SDS011;16074;42.708;23.312;2023-05-10T06:56:13;12.32;;;11.13;;
787;SDS011;16074;42.708;23.312;2023-05-10T06:58:42;11.25;;;10.25;;
787;SDS011;16074;42.708;23.312;2023-05-10T07:01:11;12.75;;;11.38;;
787;SDS011;16074;42.708;23.312;2023-05-10T07:03:40;12.52;;;11.43;;
787;SDS011;16074;42.708;23.312;2023-05-10T07:06:08;12.90;;;11.60;;
787;SDS011;16074;42.708;23.312;2023-05-10T07:08:51;12.55;;;11.25;;
787;SDS011;16074;42.708;23.312;2023-05-10T07:11:19;11.40;;;10.40;;
787;SDS011;16074;42.708;23.312;2023-05-10T07:13:47;11.07;;;9.95;;
787;SDS011;16074;42.708;23.312;2023-05-10T07:16:17;10.68;;;9.68;;
787;SDS011;16074;42.708;23.312;2023-05-10T07:18:46;11.57;;;10.30;;
787;SDS011;16074;42.708;23.312;2023-05-10T07:21:14;11.82;;;10.18;;
787;SDS011;16074;42.708;23.312;2023-05-10T07:23:42;12.00;;;10.15;;
787;SDS011;16074;42.708;23.312;2023-05-10T07:26:11;9.90;;;8.93;;
787;SDS011;16074;42.708;23.312;2023-05-10T07:28:39;10.60;;;9.48;;
787;SDS011;16074;42.708;23.312;2023-05-10T07:31:07;9.10;;;8.30;;
787;SDS011;16074;42.708;23.312;2023-05-10T07:33:37;10.98;;;10.07;;
787;SDS011;16074;42.708;23.312;2023-05-10T07:36:05;12.48;;;11.07;;
787;SDS011;16074;42.708;23.312;2023-05-10T07:38:34;11.35;;;10.35;;
787;SDS011;16074;42.708;23.312;2023-05-10T07:41:06;12.35;;;11.13;;
787;SDS011;16074;42.708;23.312;2023-05-10T07:43:34;11.93;;;10.70;;
787;SDS011;16074;42.708;23.312;2023-05-10T07:46:02;14.85;;;13.35;;
787;SDS011;16074;42.708;23.312;2023-05-10T07:48:31;13.02;;;11.80;;
787;SDS011;16074;42.708;23.312;2023-05-10T07:51:01;12.55;;;11.25;;
787;SDS011;16074;42.708;23.312;2023-05-10T07:53:30;12.45;;;11.30;;
787;SDS011;16074;42.708;23.312;2023-05-10T07:55:58;12.75;;;11.13;;
787;SDS011;16074;42.708;23.312;2023-05-10T07:58:27;13.90;;;12.23;;
787;SDS011;16074;42.708;23.312;2023-05-10T08:00:55;16.25;;;14.50;;
787;SDS011;16074;42.708;23.312;2023-05-10T08:03:23;15.73;;;12.52;;
787;SDS011;16074;42.708;23.312;2023-05-10T08:05:52;13.05;;;11.65;;
787;SDS011;16074;42.708;23.312;2023-05-10T08:08:21;14.23;;;12.65;;
787;SDS011;16074;42.708;23.312;2023-05-10T08:10:50;15.32;;;12.82;;
787;SDS011;16074;42.708;23.312;2023-05-10T08:13:19;13.95;;;12.50;;
787;SDS011;16074;42.708;23.312;2023-05-10T08:15:47;13.27;;;11.63;;
787;SDS011;16074;42.708;23.312;2023-05-10T08:18:15;12.88;;;10.70;;
787;SDS011;16074;42.708;23.312;2023-05-10T08:20:44;13.82;;;12.43;;
787;SDS011;16074;42.708;23.312;2023-05-10T08:23:12;13.98;;;11.65;;
787;SDS011;16074;42.708;23.312;2023-05-10T08:25:42;14.40;;;12.80;;
787;SDS011;16074;42.708;23.312;2023-05-10T08:28:10;14.07;;;12.60;;
787;SDS011;16074;42.708;23.312;2023-05-10T08:30:38;13.88;;;12.57;;
787;SDS011;16074;42.708;23.312;2023-05-10T08:33:07;14.27;;;12.88;;
787;SDS011;16074;42.708;23.312;2023-05-10T08:35:35;11.63;;;10.63;;
787;SDS011;16074;42.708;23.312;2023-05-10T08:38:03;11.70;;;10.60;;
787;SDS011;16074;42.708;23.312;2023-05-10T08:40:32;13.95;;;12.57;;
787;SDS011;16074;42.708;23.312;2023-05-10T08:43:04;13.75;;;11.38;;
787;SDS011;16074;42.708;23.312;2023-05-10T08:45:36;13.52;;;12.32;;
787;SDS011;16074;42.708;23.312;2023-05-10T08:48:06;13.48;;;12.18;;
787;SDS011;16074;42.708;23.312;2023-05-10T08:50:35;12.65;;;11.45;;
787;SDS011;16074;42.708;23.312;2023-05-10T08:53:05;13.32;;;12.00;;
787;SDS011;16074;42.708;23.312;2023-05-10T08:55:36;12.75;;;11.65;;
787;SDS011;16074;42.708;23.312;2023-05-10T08:58:08;13.20;;;11.90;;
787;SDS011;16074;42.708;23.312;2023-05-10T09:00:37;13.63;;;12.30;;
787;SDS011;16074;42.708;23.312;2023-05-10T09:03:05;14.02;;;12.52;;
787;SDS011;16074;42.708;23.312;2023-05-10T09:05:33;11.70;;;10.60;;
787;SDS011;16074;42.708;23.312;2023-05-10T09:08:04;15.00;;;13.27;;
787;SDS011;16074;42.708;23.312;2023-05-10T09:10:32;12.52;;;11.43;;
787;SDS011;16074;42.708;23.312;2023-05-10T09:13:01;14.50;;;13.10;;
787;SDS011;16074;42.708;23.312;2023-05-10T09:15:31;15.50;;;13.75;;
787;SDS011;16074;42.708;23.312;2023-05-10T09:18:00;14.02;;;12.73;;
787;SDS011;16074;42.708;23.312;2023-05-10T09:20:29;12.18;;;10.75;;
787;SDS011;16074;42.708;23.312;2023-05-10T09:22:57;12.73;;;11.52;;
787;SDS011;16074;42.708;23.312;2023-05-10T09:25:26;13.95;;;12.57;;
787;SDS011;16074;42.708;23.312;2023-05-10T09:27:55;14.38;;;12.95;;
787;SDS011;16074;42.708;23.312;2023-05-10T09:30:24;13.63;;;12.27;;
787;SDS011;16074;42.708;23.312;2023-05-10T09:32:55;12.38;;;11.27;;
787;SDS011;16074;42.708;23.312;2023-05-10T09:35:25;14.77;;;13.35;;
787;SDS011;16074;42.708;23.312;2023-05-10T09:37:57;18.20;;;13.35;;
787;SDS011;16074;42.708;23.312;2023-05-10T09:40:31;16.98;;;14.10;;
787;SDS011;16074;42.708;23.312;2023-05-10T09:43:00;23.60;;;14.52;;
787;SDS011;16074;42.708;23.312;2023-05-10T09:45:31;15.93;;;12.35;;
787;SDS011;16074;42.708;23.312;2023-05-10T09:48:05;14.52;;;13.05;;
787;SDS011;16074;42.708;23.312;2023-05-10T09:50:34;16.17;;;13.82;;
787;SDS011;16074;42.708;23.312;2023-05-10T09:53:02;17.40;;;15.65;;
787;SDS011;16074;42.708;23.312;2023-05-10T09:55:38;12.65;;;11.15;;
787;SDS011;16074;42.708;23.312;2023-05-10T09:58:07;18.33;;;13.07;;
787;SDS011;16074;42.708;23.312;2023-05-10T10:00:38;14.55;;;12.45;;
787;SDS011;16074;42.708;23.312;2023-05-10T10:03:13;13.40;;;11.93;;
787;SDS011;16074;42.708;23.312;2023-05-10T10:05:42;14.40;;;11.75;;
787;SDS011;16074;42.708;23.312;2023-05-10T10:08:11;17.95;;;11.55;;
787;SDS011;16074;42.708;23.312;2023-05-10T10:10:40;13.45;;;12.05;;
787;SDS011;16074;42.708;23.312;2023-05-10T10:13:12;13.60;;;12.20;;
787;SDS011;16074;42.708;23.312;2023-05-10T10:15:40;13.95;;;12.65;;
787;SDS011;16074;42.708;23.312;2023-05-10T10:18:13;13.43;;;11.75;;
787;SDS011;16074;42.708;23.312;2023-05-10T10:20:42;14.65;;;10.75;;
787;SDS011;16074;42.708;23.312;2023-05-10T10:23:10;12.48;;;11.27;;
787;SDS011;16074;42.708;23.312;2023-05-10T10:25:43;11.88;;;10.00;;
787;SDS011;16074;42.708;23.312;2023-05-10T10:28:21;14.45;;;13.15;;
787;SDS011;16074;42.708;23.312;2023-05-10T10:30:59;13.20;;;11.93;;
787;SDS011;16074;42.708;23.312;2023-05-10T10:33:43;13.20;;;12.10;;
787;SDS011;16074;42.708;23.312;2023-05-10T10:36:23;18.42;;;12.43;;
787;SDS011;16074;42.708;23.312;2023-05-10T10:38:59;15.73;;;14.13;;
787;SDS011;16074;42.708;23.312;2023-05-10T10:41:30;14.27;;;11.38;;
787;SDS011;16074;42.708;23.312;2023-05-10T10:47:04;11.80;;;10.68;;
787;SDS011;16074;42.708;23.312;2023-05-10T10:49:43;11.40;;;10.35;;
787;SDS011;16074;42.708;23.312;2023-05-10T10:52:21;14.27;;;12.98;;
787;SDS011;16074;42.708;23.312;2023-05-10T10:54:58;11.40;;;10.40;;
787;SDS011;16074;42.708;23.312;2023-05-10T10:57:42;11.20;;;10.20;;
787;SDS011;16074;42.708;23.312;2023-05-10T11:00:20;13.50;;;10.80;;
787;SDS011;16074;42.708;23.312;2023-05-10T11:02:51;12.15;;;11.07;;
787;SDS011;16074;42.708;23.312;2023-05-10T11:05:26;14.75;;;11.00;;
787;SDS011;16074;42.708;23.312;2023-05-10T11:08:12;10.75;;;9.65;;
787;SDS011;16074;42.708;23.312;2023-05-10T11:10:54;10.60;;;9.60;;
787;SDS011;16074;42.708;23.312;2023-05-10T11:13:34;10.30;;;9.38;;
787;SDS011;16074;42.708;23.312;2023-05-10T11:16:09;12.77;;;11.55;;
787;SDS011;16074;42.708;23.312;2023-05-10T11:21:44;16.33;;;9.77;;
787;SDS011;16074;42.708;23.312;2023-05-10T11:24:14;9.43;;;8.52;;
787;SDS011;16074;42.708;23.312;2023-05-10T11:26:43;12.82;;;9.10;;
787;SDS011;16074;42.708;23.312;2023-05-10T11:29:12;10.10;;;9.20;;
787;SDS011;16074;42.708;23.312;2023-05-10T11:31:41;11.07;;;9.98;;
787;SDS011;16074;42.708;23.312;2023-05-10T11:34:11;10.35;;;9.23;;
787;SDS011;16074;42.708;23.312;2023-05-10T11:36:52;10.82;;;9.90;;
787;SDS011;16074;42.708;23.312;2023-05-10T11:39:21;10.30;;;9.48;;
787;SDS011;16074;42.708;23.312;2023-05-10T11:41:54;10.90;;;9.80;;
787;SDS011;16074;42.708;23.312;2023-05-10T11:44:22;10.00;;;9.10;;
787;SDS011;16074;42.708;23.312;2023-05-10T11:46:51;11.95;;;10.15;;
787;SDS011;16074;42.708;23.312;2023-05-10T11:49:19;10.60;;;9.70;;
787;SDS011;16074;42.708;23.312;2023-05-10T11:51:52;11.48;;;9.55;;
787;SDS011;16074;42.708;23.312;2023-05-10T11:54:20;10.15;;;9.15;;
787;SDS011;16074;42.708;23.312;2023-05-10T11:56:48;10.10;;;9.20;;
787;SDS011;16074;42.708;23.312;2023-05-10T11:59:17;10.27;;;9.38;;
787;SDS011;16074;42.708;23.312;2023-05-10T12:01:46;10.20;;;9.35;;
787;SDS011;16074;42.708;23.312;2023-05-10T12:04:14;10.75;;;9.82;;
787;SDS011;16074;42.708;23.312;2023-05-10T12:06:43;9.38;;;8.50;;
787;SDS011;16074;42.708;23.312;2023-05-10T12:09:14;11.55;;;10.45;;
787;SDS011;16074;42.708;23.312;2023-05-10T12:11:48;13.30;;;8.75;;
787;SDS011;16074;42.708;23.312;2023-05-10T12:14:17;12.38;;;10.40;;
787;SDS011;16074;42.708;23.312;2023-05-10T12:16:47;10.43;;;9.23;;
787;SDS011;16074;42.708;23.312;2023-05-10T12:19:18;11.85;;;10.23;;
787;SDS011;16074;42.708;23.312;2023-05-10T12:21:47;11.73;;;10.65;;
787;SDS011;16074;42.708;23.312;2023-05-10T12:24:16;13.32;;;11.70;;
787;SDS011;16074;42.708;23.312;2023-05-10T12:26:45;10.88;;;9.88;;
787;SDS011;16074;42.708;23.312;2023-05-10T12:29:15;9.27;;;8.35;;
787;SDS011;16074;42.708;23.312;2023-05-10T12:31:51;9.35;;;8.45;;
787;SDS011;16074;42.708;23.312;2023-05-10T12:34:24;12.77;;;11.57;;
787;SDS011;16074;42.708;23.312;2023-05-10T12:36:53;12.73;;;11.45;;
787;SDS011;16074;42.708;23.312;2023-05-10T12:39:23;22.35;;;12.10;;
787;SDS011;16074;42.708;23.312;2023-05-10T12:41:52;13.85;;;10.93;;
787;SDS011;16074;42.708;23.312;2023-05-10T12:44:20;10.35;;;9.23;;
787;SDS011;16074;42.708;23.312;2023-05-10T12:46:48;11.63;;;10.13;;
787;SDS011;16074;42.708;23.312;2023-05-10T12:49:16;11.32;;;10.32;;
787;SDS011;16074;42.708;23.312;2023-05-10T12:51:46;12.23;;;11.07;;
787;SDS011;16074;42.708;23.312;2023-05-10T12:54:14;13.27;;;12.07;;
787;SDS011;16074;42.708;23.312;2023-05-10T12:56:44;12.07;;;10.98;;
787;SDS011;16074;42.708;23.312;2023-05-10T12:59:12;9.88;;;8.40;;
787;SDS011;16074;42.708;23.312;2023-05-10T13:01:40;12.00;;;10.80;;
787;SDS011;16074;42.708;23.312;2023-05-10T13:04:08;10.90;;;9.90;;
787;SDS011;16074;42.708;23.312;2023-05-10T13:06:37;14.02;;;10.20;;
787;SDS011;16074;42.708;23.312;2023-05-10T13:09:05;9.95;;;9.05;;
787;SDS011;16074;42.708;23.312;2023-05-10T13:11:33;11.98;;;10.85;;
787;SDS011;16074;42.708;23.312;2023-05-10T13:14:03;13.40;;;10.23;;
787;SDS011;16074;42.708;23.312;2023-05-10T13:16:32;12.05;;;10.95;;
787;SDS011;16074;42.708;23.312;2023-05-10T13:19:00;12.90;;;11.57;;
787;SDS011;16074;42.708;23.312;2023-05-10T13:21:29;13.55;;;10.57;;
787;SDS011;16074;42.708;23.312;2023-05-10T13:23:57;10.32;;;9.32;;
787;SDS011;16074;42.708;23.312;2023-05-10T13:26:26;9.85;;;9.00;;
787;SDS011;16074;42.708;23.312;2023-05-10T13:28:55;12.10;;;10.77;;
787;SDS011;16074;42.708;23.312;2023-05-10T13:31:24;10.93;;;9.82;;
787;SDS011;16074;42.708;23.312;2023-05-10T13:33:53;12.13;;;10.85;;
787;SDS011;16074;42.708;23.312;2023-05-10T13:36:21;9.80;;;8.80;;
787;SDS011;16074;42.708;23.312;2023-05-10T13:38:50;10.57;;;9.50;;
787;SDS011;16074;42.708;23.312;2023-05-10T13:41:18;11.05;;;9.80;;
787;SDS011;16074;42.708;23.312;2023-05-10T13:43:47;12.45;;;11.32;;
787;SDS011;16074;42.708;23.312;2023-05-10T13:46:16;11.50;;;10.45;;
787;SDS011;16074;42.708;23.312;2023-05-10T13:48:45;9.73;;;8.73;;
787;SDS011;16074;42.708;23.312;2023-05-10T13:51:13;10.32;;;8.60;;
787;SDS011;16074;42.708;23.312;2023-05-10T13:53:42;12.18;;;10.25;;
787;SDS011;16074;42.708;23.312;2023-05-10T13:56:10;10.82;;;9.77;;
787;SDS011;16074;42.708;23.312;2023-05-10T13:58:38;12.30;;;9.48;;
787;SDS011;16074;42.708;23.312;2023-05-10T14:01:06;9.77;;;8.95;;
787;SDS011;16074;42.708;23.312;2023-05-10T14:03:35;9.65;;;8.85;;
787;SDS011;16074;42.708;23.312;2023-05-10T14:06:05;10.10;;;9.20;;
787;SDS011;16074;42.708;23.312;2023-05-10T14:08:34;10.93;;;9.93;;
787;SDS011;16074;42.708;23.312;2023-05-10T14:11:02;9.57;;;8.68;;
787;SDS011;16074;42.708;23.312;2023-05-10T14:13:30;11.63;;;10.52;;
787;SDS011;16074;42.708;23.312;2023-05-10T14:15:58;10.05;;;9.15;;
787;SDS011;16074;42.708;23.312;2023-05-10T14:18:27;10.45;;;9.55;;
787;SDS011;16074;42.708;23.312;2023-05-10T14:20:56;9.88;;;9.05;;
787;SDS011;16074;42.708;23.312;2023-05-10T14:23:25;10.20;;;9.30;;
787;SDS011;16074;42.708;23.312;2023-05-10T14:25:55;15.02;;;10.13;;
787;SDS011;16074;42.708;23.312;2023-05-10T14:28:23;11.90;;;10.70;;
787;SDS011;16074;42.708;23.312;2023-05-10T14:30:52;10.68;;;9.68;;
787;SDS011;16074;42.708;23.312;2023-05-10T14:33:20;10.20;;;9.13;;
787;SDS011;16074;42.708;23.312;2023-05-10T14:35:48;10.98;;;10.07;;
787;SDS011;16074;42.708;23.312;2023-05-10T14:38:17;12.25;;;10.50;;
787;SDS011;16074;42.708;23.312;2023-05-10T14:40:47;11.30;;;10.10;;
787;SDS011;16074;42.708;23.312;2023-05-10T14:43:15;11.05;;;10.15;;
787;SDS011;16074;42.708;23.312;2023-05-10T14:45:43;11.02;;;10.00;;
787;SDS011;16074;42.708;23.312;2023-05-10T14:48:12;11.45;;;9.30;;
787;SDS011;16074;42.708;23.312;2023-05-10T14:50:42;12.35;;;9.10;;
787;SDS011;16074;42.708;23.312;2023-05-10T14:53:11;10.95;;;9.95;;
787;SDS011;16074;42.708;23.312;2023-05-10T14:55:39;11.70;;;10.57;;
787;SDS011;16074;42.708;23.312;2023-05-10T14:58:09;12.35;;;11.07;;
787;SDS011;16074;42.708;23.312;2023-05-10T15:00:37;13.70;;;11.30;;
787;SDS011;16074;42.708;23.312;2023-05-10T15:03:06;11.88;;;10.70;;
787;SDS011;16074;42.708;23.312;2023-05-10T15:05:35;9.60;;;8.70;;
787;SDS011;16074;42.708;23.312;2023-05-10T15:08:04;11.25;;;10.15;;